createdAt,value
2023-02-19T00:03:22.753Z,7.90
2023-02-19T00:08:26.238Z,8.30
2023-02-19T00:13:30.261Z,7.50
2023-02-19T00:18:34.022Z,8.50
2023-02-19T00:23:37.846Z,8.70
2023-02-19T00:28:41.321Z,10.80
2023-02-19T00:33:45.419Z,9.40
2023-02-19T00:38:49.588Z,9.10
2023-02-19T00:43:54.905Z,11.70
2023-02-19T00:48:59.037Z,9.70
2023-02-19T00:54:02.835Z,9.70
2023-02-19T00:59:06.286Z,7.90
2023-02-19T01:04:09.887Z,6.70
2023-02-19T01:09:13.344Z,7.00
2023-02-19T01:14:17.962Z,8.60
2023-02-19T01:19:21.495Z,8.30
2023-02-19T01:24:24.990Z,7.00
2023-02-19T01:29:28.551Z,6.60
2023-02-19T01:34:33.593Z,6.00
2023-02-19T01:39:37.256Z,7.40
2023-02-19T01:45:19.100Z,8.90
2023-02-19T01:50:23.726Z,8.60
2023-02-19T01:55:27.205Z,8.50
2023-02-19T02:00:31.910Z,5.80
2023-02-19T02:05:49.522Z,5.70
2023-02-19T02:10:54.846Z,6.00
2023-02-19T02:16:10.229Z,5.10
2023-02-19T02:21:36.063Z,5.30
2023-02-19T02:26:50.967Z,6.50
2023-02-19T02:31:58.708Z,6.50
2023-02-19T02:37:04.312Z,6.30
2023-02-19T02:42:26.505Z,7.50
2023-02-19T02:47:41.405Z,12.80
2023-02-19T02:53:06.808Z,10.60
2023-02-19T02:58:12.353Z,10.20
2023-02-19T03:03:20.086Z,9.30
2023-02-19T03:08:27.891Z,10.20
2023-02-19T03:13:56.659Z,9.20
2023-02-19T03:19:21.658Z,9.50
2023-02-19T03:24:50.370Z,8.50
2023-02-19T03:29:57.406Z,9.00
2023-02-19T03:35:06.080Z,8.10
2023-02-19T03:40:11.153Z,7.70
2023-02-19T03:45:35.980Z,7.80
2023-02-19T03:50:46.736Z,6.50
2023-02-19T03:55:59.473Z,6.20
2023-02-19T04:01:09.417Z,6.30
2023-02-19T04:06:20.661Z,7.00
2023-02-19T04:11:27.083Z,7.60
2023-02-19T04:16:39.324Z,7.50
2023-02-19T04:21:44.809Z,8.30
2023-02-19T04:26:51.686Z,9.70
2023-02-19T04:31:55.339Z,12.30
2023-02-19T04:36:58.814Z,14.70
2023-02-19T04:42:02.203Z,15.60
2023-02-19T04:47:05.744Z,14.70
2023-02-19T04:52:09.238Z,12.90
2023-02-19T04:57:12.703Z,11.00
2023-02-19T05:02:16.222Z,12.10
2023-02-19T05:07:19.935Z,11.80
2023-02-19T05:12:23.425Z,10.50
2023-02-19T05:17:26.977Z,8.60
2023-02-19T05:22:30.555Z,8.90
2023-02-19T05:27:34.029Z,9.90
2023-02-19T05:32:37.823Z,8.80
2023-02-19T05:37:41.249Z,11.00
2023-02-19T05:42:44.678Z,10.40
2023-02-19T05:47:48.162Z,10.30
2023-02-19T05:52:51.858Z,10.00
2023-02-19T05:57:55.353Z,11.00
2023-02-19T06:02:59.389Z,10.40
2023-02-19T06:08:02.996Z,11.50
2023-02-19T06:13:06.801Z,11.50
2023-02-19T06:18:10.205Z,13.20
2023-02-19T06:23:13.815Z,13.10
2023-02-19T06:28:17.361Z,9.60
2023-02-19T06:33:20.919Z,6.80
2023-02-19T06:38:24.707Z,7.90
2023-02-19T06:43:28.683Z,6.50
2023-02-19T06:48:32.940Z,6.80
2023-02-19T06:53:36.545Z,5.90
2023-02-19T06:58:39.918Z,6.90
2023-02-19T07:03:43.610Z,7.70
2023-02-19T07:08:47.275Z,8.10
2023-02-19T07:13:55.568Z,6.90
2023-02-19T07:19:00.088Z,8.60
2023-02-19T07:24:04.221Z,8.80
2023-02-19T07:29:09.561Z,9.40
2023-02-19T07:34:13.251Z,11.10
2023-02-19T07:39:16.794Z,9.00
2023-02-19T07:44:20.212Z,8.80
2023-02-19T07:49:23.870Z,4.10
2023-02-19T07:54:27.568Z,3.60
2023-02-19T07:59:31.101Z,3.70
2023-02-19T08:04:35.487Z,2.90
2023-02-19T08:09:39.189Z,4.40
2023-02-19T08:14:42.754Z,4.80
2023-02-19T08:19:46.244Z,3.70
2023-02-19T08:24:49.665Z,6.10
2023-02-19T08:29:53.126Z,5.50
2023-02-19T08:34:56.537Z,4.80
2023-02-19T08:39:59.917Z,5.30
2023-02-19T08:45:03.953Z,5.10
2023-02-19T08:50:09.269Z,3.40
2023-02-19T08:55:12.676Z,4.90
2023-02-19T09:00:17.378Z,4.80
2023-02-19T09:05:21.858Z,4.70
2023-02-19T09:10:25.221Z,5.30
2023-02-19T09:15:29.376Z,3.90
2023-02-19T09:20:32.815Z,4.10
2023-02-19T09:25:36.704Z,4.10
2023-02-19T09:30:40.252Z,5.10
2023-02-19T09:35:48.929Z,3.60
2023-02-19T09:41:00.336Z,3.20
2023-02-19T09:46:24.568Z,2.90
2023-02-19T09:51:31.492Z,2.50
2023-02-19T09:56:42.277Z,3.80
2023-02-19T10:01:57.417Z,3.50
2023-02-19T10:07:03.862Z,2.60
2023-02-19T10:12:16.433Z,3.30
2023-02-19T10:17:26.033Z,3.40
2023-02-19T10:22:33.206Z,2.40
2023-02-19T10:27:41.341Z,1.80
2023-02-19T10:33:02.148Z,2.50
2023-02-19T10:38:08.481Z,2.60
2023-02-19T10:43:30.847Z,2.90
2023-02-19T10:48:38.560Z,1.60
2023-02-19T10:53:58.047Z,2.20
2023-02-19T10:59:27.096Z,2.10
2023-02-19T11:04:37.579Z,2.10
2023-02-19T11:09:53.503Z,1.40
2023-02-19T11:15:22.468Z,2.30
2023-02-19T11:20:31.550Z,2.10
2023-02-19T11:25:38.324Z,2.30
2023-02-19T11:30:49.861Z,2.40
2023-02-19T11:36:19.109Z,2.00
2023-02-19T11:41:42.807Z,2.30
2023-02-19T11:46:57.742Z,2.60
2023-02-19T11:52:16.968Z,2.30
2023-02-19T11:57:43.917Z,2.40
2023-02-19T12:03:10.160Z,2.80
2023-02-19T12:08:43.025Z,2.10
2023-02-19T12:14:40.283Z,2.40
2023-02-19T12:19:57.581Z,2.10
2023-02-19T12:25:26.191Z,2.40
2023-02-19T12:31:07.744Z,2.60
2023-02-19T12:36:25.329Z,2.20
2023-02-19T12:41:44.684Z,1.80
2023-02-19T12:46:54.677Z,2.30
2023-02-19T12:52:05.611Z,2.20
2023-02-19T12:57:23.114Z,1.60
2023-02-19T13:02:40.863Z,2.30
2023-02-19T13:07:54.014Z,1.90
2023-02-19T13:13:05.979Z,2.20
2023-02-19T13:23:46.190Z,2.20
2023-02-19T13:29:09.179Z,1.70
2023-02-19T13:34:35.834Z,2.00
2023-02-19T13:39:49.468Z,1.40
2023-02-19T13:45:03.488Z,2.30
2023-02-19T13:50:26.923Z,2.00
2023-02-19T13:55:55.071Z,1.40
2023-02-19T14:01:05.150Z,1.70
2023-02-19T14:06:15.108Z,1.50
2023-02-19T14:11:38.354Z,1.70
2023-02-19T14:17:00.644Z,2.20
2023-02-19T14:22:48.299Z,2.50
2023-02-19T14:27:54.965Z,2.20
2023-02-19T14:33:15.563Z,2.20
2023-02-19T14:38:24.808Z,1.80
2023-02-19T14:43:31.974Z,1.90
2023-02-19T14:48:42.137Z,2.60
2023-02-19T14:53:51.349Z,2.10
2023-02-19T14:59:23.391Z,2.60
2023-02-19T15:09:48.563Z,2.00
2023-02-19T15:14:59.492Z,2.40
2023-02-19T15:20:11.165Z,2.20
2023-02-19T15:25:19.864Z,2.70
2023-02-19T15:30:28.817Z,2.90
2023-02-19T15:35:33.721Z,3.00
2023-02-19T15:40:37.644Z,2.60
2023-02-19T15:45:46.217Z,2.70
2023-02-19T15:50:54.744Z,2.70
2023-02-19T15:56:04.831Z,2.40
2023-02-19T16:01:17.125Z,1.80
2023-02-19T16:06:21.958Z,2.20
2023-02-19T16:11:34.730Z,2.60
2023-02-19T16:16:41.869Z,3.20
2023-02-19T16:21:45.861Z,3.50
2023-02-19T16:26:49.823Z,3.70
2023-02-19T16:31:57.875Z,3.20
2023-02-19T16:37:19.506Z,4.60
2023-02-19T16:42:23.429Z,3.40
2023-02-19T16:47:40.849Z,3.40
2023-02-19T16:53:00.142Z,4.20
2023-02-19T16:58:04.078Z,5.00
2023-02-19T17:03:14.126Z,4.50
2023-02-19T17:08:38.945Z,6.60
2023-02-19T17:13:48.612Z,4.20
2023-02-19T17:18:54.760Z,3.20
2023-02-19T17:23:58.818Z,2.90
2023-02-19T17:29:05.124Z,3.70
2023-02-19T17:34:17.351Z,4.20
2023-02-19T17:39:31.286Z,3.20
2023-02-19T17:44:40.892Z,5.00
2023-02-19T17:49:47.891Z,5.80
2023-02-19T17:55:01.799Z,4.60
2023-02-19T18:00:26.622Z,4.60
2023-02-19T18:05:34.977Z,5.20
2023-02-19T18:10:39.635Z,5.00
2023-02-19T18:15:45.506Z,5.40
2023-02-19T18:20:52.735Z,4.00
2023-02-19T18:26:02.438Z,3.70
2023-02-19T18:31:07.668Z,3.90
2023-02-19T18:36:13.627Z,4.50
2023-02-19T18:41:22.170Z,4.90
2023-02-19T18:46:32.250Z,4.60
2023-02-19T18:51:42.907Z,5.10
2023-02-19T18:56:53.861Z,5.00
2023-02-19T19:02:02.335Z,4.90
2023-02-19T19:07:14.094Z,5.30
2023-02-19T19:12:23.161Z,4.80
2023-02-19T19:17:38.021Z,4.80
2023-02-19T19:22:46.027Z,5.10
2023-02-19T19:27:57.302Z,5.60
2023-02-19T19:33:03.208Z,5.80
2023-02-19T19:38:16.938Z,5.70
2023-02-19T19:43:23.964Z,5.70
2023-02-19T19:48:30.361Z,7.10
2023-02-19T19:53:35.804Z,7.00
2023-02-19T19:58:45.360Z,7.40
2023-02-19T20:03:53.103Z,6.90
2023-02-19T20:09:03.246Z,5.20
2023-02-19T20:14:13.762Z,5.70
2023-02-19T20:19:30.010Z,5.00
2023-02-19T20:24:36.571Z,4.40
2023-02-19T20:29:53.114Z,5.00
2023-02-19T20:35:04.295Z,6.40
2023-02-19T20:40:13.880Z,5.30
2023-02-19T20:45:21.664Z,5.10
2023-02-19T20:50:31.850Z,5.90
2023-02-19T20:55:39.220Z,6.70
2023-02-19T21:00:50.422Z,8.20
2023-02-19T21:05:54.834Z,4.90
2023-02-19T21:11:04.861Z,5.00
2023-02-19T21:16:11.717Z,6.50
2023-02-19T21:21:24.748Z,6.70
2023-02-19T21:26:35.415Z,5.40
2023-02-19T21:31:41.803Z,5.60
2023-02-19T21:36:55.363Z,5.50
2023-02-19T21:42:09.678Z,5.50
2023-02-19T21:47:15.745Z,6.20
2023-02-19T21:52:26.469Z,6.40
2023-02-19T21:57:31.522Z,6.10
2023-02-19T22:02:35.833Z,6.70
2023-02-19T22:07:39.850Z,5.80
2023-02-19T22:12:45.125Z,6.10
2023-02-19T22:17:52.264Z,6.10
2023-02-19T22:23:06.580Z,7.00
2023-02-19T22:28:18.252Z,6.60
2023-02-19T22:33:24.934Z,9.40
2023-02-19T22:38:40.226Z,7.30
2023-02-19T22:43:44.512Z,6.80
2023-02-19T22:48:51.984Z,7.80
2023-02-19T22:54:01.240Z,17.50
2023-02-19T22:59:07.936Z,10.20
2023-02-19T23:04:15.880Z,7.20
2023-02-19T23:09:36.151Z,8.00
2023-02-19T23:14:43.272Z,8.50
2023-02-19T23:19:59.249Z,6.80
2023-02-19T23:25:03.016Z,7.50
2023-02-19T23:30:08.573Z,7.50
2023-02-19T23:35:12.204Z,8.10
2023-02-19T23:40:15.537Z,9.20
2023-02-19T23:45:19.386Z,8.60
2023-02-19T23:50:23.531Z,6.80
2023-02-19T23:55:27.865Z,5.90
